Meteorología y climatología de Navarra
Datos de la estación - Meteo Navarra

Estación de Goizueta GN

Altitud 142 m.


Datos desde el 15/02/2020 hasta el 16/02/2020 en horario solar
Los datos son PROVISIONALES

Anterior Página 1 de 1 Siguiente Descargar: Formato para Excel 2000 o superior   Formato csv   Formato para OpenOffice Calc
Fecha Temperatura Humedad relativa Radiación global Insolación Precipitación Vel. viento 10 m Vel. viento 10 m Dir. viento 10 m
ºC % W/m² s l/m² m/s km/h º
15/02/2020 0:00 4.3 99 - - - - 0.0 - - - - - -
15/02/2020 0:10 4.4 99 - - - - 0.0 - - - - - -
15/02/2020 0:20 4.3 99 - - - - 0.0 - - - - - -
15/02/2020 0:30 4.1 99 - - - - 0.0 - - - - - -
15/02/2020 0:40 4.0 99 - - - - 0.0 - - - - - -
15/02/2020 0:50 4.1 99 - - - - 0.0 - - - - - -
15/02/2020 1:00 3.9 99 - - - - 0.0 - - - - - -
15/02/2020 1:10 3.9 99 - - - - 0.0 - - - - - -
15/02/2020 1:20 3.8 99 - - - - 0.0 - - - - - -
15/02/2020 1:30 3.6 99 - - - - 0.0 - - - - - -
15/02/2020 1:40 3.6 99 - - - - 0.0 - - - - - -
15/02/2020 1:50 3.7 99 - - - - 0.0 - - - - - -
15/02/2020 2:00 3.6 99 - - - - 0.0 - - - - - -
15/02/2020 2:10 3.6 99 - - - - 0.0 - - - - - -
15/02/2020 2:20 3.5 99 - - - - 0.0 - - - - - -
15/02/2020 2:30 3.5 99 - - - - 0.0 - - - - - -
15/02/2020 2:40 3.3 99 - - - - 0.0 - - - - - -
15/02/2020 2:50 3.4 99 - - - - 0.0 - - - - - -
15/02/2020 3:00 3.2 99 - - - - 0.0 - - - - - -
15/02/2020 3:10 3.1 99 - - - - 0.0 - - - - - -
15/02/2020 3:20 2.9 99 - - - - 0.0 - - - - - -
15/02/2020 3:30 3.0 100 - - - - 0.0 - - - - - -
15/02/2020 3:40 3.1 100 - - - - 0.0 - - - - - -
15/02/2020 3:50 3.1 100 - - - - 0.0 - - - - - -
15/02/2020 4:00 2.8 100 - - - - 0.0 - - - - - -
15/02/2020 4:10 2.8 100 - - - - 0.0 - - - - - -
15/02/2020 4:20 3.0 100 - - - - 0.0 - - - - - -
15/02/2020 4:30 2.9 100 - - - - 0.0 - - - - - -
15/02/2020 4:40 2.8 100 - - - - 0.0 - - - - - -
15/02/2020 4:50 2.8 100 - - - - 0.0 - - - - - -
15/02/2020 5:00 2.9 100 - - - - 0.0 - - - - - -
15/02/2020 5:10 3.0 100 - - - - 0.0 - - - - - -
15/02/2020 5:20 2.9 100 - - - - 0.0 - - - - - -
15/02/2020 5:30 3.1 100 - - - - 0.0 - - - - - -
15/02/2020 5:40 3.0 100 - - - - 0.0 - - - - - -
15/02/2020 5:50 2.9 100 - - - - 0.0 - - - - - -
15/02/2020 6:00 2.6 100 - - - - 0.0 - - - - - -
15/02/2020 6:10 2.4 100 - - - - 0.0 - - - - - -
15/02/2020 6:20 2.5 100 - - - - 0.0 - - - - - -
15/02/2020 6:30 2.4 100 - - - - 0.0 - - - - - -
15/02/2020 6:40 2.2 100 - - - - 0.0 - - - - - -
15/02/2020 6:50 2.1 100 - - - - 0.0 - - - - - -
15/02/2020 7:00 2.1 100 - - - - 0.0 - - - - - -
15/02/2020 7:10 2.4 100 - - - - 0.0 - - - - - -
15/02/2020 7:20 2.4 100 - - - - 0.0 - - - - - -
15/02/2020 7:30 2.4 100 - - - - 0.0 - - - - - -
15/02/2020 7:40 2.4 100 - - - - 0.0 - - - - - -
15/02/2020 7:50 2.3 100 - - - - 0.0 - - - - - -
15/02/2020 8:00 2.5 100 - - - - 0.0 - - - - - -
15/02/2020 8:10 2.7 100 - - - - 0.0 - - - - - -
15/02/2020 8:20 2.8 100 - - - - 0.0 - - - - - -
15/02/2020 8:30 3.0 100 - - - - 0.0 - - - - - -
15/02/2020 8:40 3.2 100 - - - - 0.0 - - - - - -
15/02/2020 8:50 3.5 100 - - - - 0.0 - - - - - -
15/02/2020 9:00 3.7 100 - - - - 0.0 - - - - - -
15/02/2020 9:10 4.1 100 - - - - 0.0 - - - - - -
15/02/2020 9:20 4.7 100 - - - - 0.0 - - - - - -
15/02/2020 9:30 6.3 100 - - - - 0.0 - - - - - -
15/02/2020 9:40 7.7 100 - - - - 0.0 - - - - - -
15/02/2020 9:50 8.4 98 - - - - 0.0 - - - - - -
15/02/2020 10:00 9.3 95 - - - - 0.0 - - - - - -
15/02/2020 10:10 10.6 90 - - - - 0.0 - - - - - -
15/02/2020 10:20 12.2 85 - - - - 0.0 - - - - - -
15/02/2020 10:30 14.9 67 - - - - 0.0 - - - - - -
15/02/2020 10:40 17.1 54 - - - - 0.0 - - - - - -
15/02/2020 10:50 17.4 52 - - - - 0.0 - - - - - -
15/02/2020 11:00 17.9 51 - - - - 0.0 - - - - - -
15/02/2020 11:10 18.0 49 - - - - 0.0 - - - - - -
15/02/2020 11:20 18.4 48 - - - - 0.0 - - - - - -
15/02/2020 11:30 18.3 48 - - - - 0.0 - - - - - -
15/02/2020 11:40 18.4 49 - - - - 0.0 - - - - - -
15/02/2020 11:50 18.7 46 - - - - 0.0 - - - - - -
15/02/2020 12:00 18.8 45 - - - - 0.0 - - - - - -
15/02/2020 12:10 19.1 45 - - - - 0.0 - - - - - -
15/02/2020 12:20 19.2 44 - - - - 0.0 - - - - - -
15/02/2020 12:30 19.2 44 - - - - 0.0 - - - - - -
15/02/2020 12:40 19.3 45 - - - - 0.0 - - - - - -
15/02/2020 12:50 19.2 44 - - - - 0.0 - - - - - -
15/02/2020 13:00 19.8 43 - - - - 0.0 - - - - - -
15/02/2020 13:10 19.6 43 - - - - 0.0 - - - - - -
15/02/2020 13:20 19.1 43 - - - - 0.0 - - - - - -
15/02/2020 13:30 19.1 42 - - - - 0.0 - - - - - -
15/02/2020 13:40 19.5 41 - - - - 0.0 - - - - - -
15/02/2020 13:50 19.7 42 - - - - 0.0 - - - - - -
15/02/2020 14:00 19.3 42 - - - - 0.0 - - - - - -
15/02/2020 14:10 19.2 44 - - - - 0.0 - - - - - -
15/02/2020 14:20 18.9 44 - - - - 0.0 - - - - - -
15/02/2020 14:30 18.7 45 - - - - 0.0 - - - - - -
15/02/2020 14:40 18.7 46 - - - - 0.0 - - - - - -
15/02/2020 14:50 18.7 46 - - - - 0.0 - - - - - -
15/02/2020 15:00 18.6 46 - - - - 0.0 - - - - - -
15/02/2020 15:10 18.5 46 - - - - 0.0 - - - - - -
15/02/2020 15:20 18.5 46 - - - - 0.0 - - - - - -
15/02/2020 15:30 18.5 46 - - - - 0.0 - - - - - -
15/02/2020 15:40 18.4 47 - - - - 0.0 - - - - - -
15/02/2020 15:50 18.3 45 - - - - 0.0 - - - - - -
15/02/2020 16:00 18.5 44 - - - - 0.0 - - - - - -
15/02/2020 16:10 18.5 43 - - - - 0.0 - - - - - -
15/02/2020 16:20 18.4 42 - - - - 0.0 - - - - - -
15/02/2020 16:30 18.2 42 - - - - 0.0 - - - - - -
15/02/2020 16:40 18.2 42 - - - - 0.0 - - - - - -
15/02/2020 16:50 18.0 42 - - - - 0.0 - - - - - -
15/02/2020 17:00 17.8 43 - - - - 0.0 - - - - - -
15/02/2020 17:10 17.5 44 - - - - 0.0 - - - - - -
15/02/2020 17:20 17.0 47 - - - - 0.0 - - - - - -
15/02/2020 17:30 16.7 47 - - - - 0.0 - - - - - -
15/02/2020 17:40 16.9 46 - - - - 0.0 - - - - - -
15/02/2020 17:50 17.7 44 - - - - 0.0 - - - - - -
15/02/2020 18:00 17.6 46 - - - - 0.0 - - - - - -
15/02/2020 18:10 17.2 49 - - - - 0.0 - - - - - -
15/02/2020 18:20 17.2 50 - - - - 0.0 - - - - - -
15/02/2020 18:30 16.8 53 - - - - 0.0 - - - - - -
15/02/2020 18:40 16.4 53 - - - - 0.0 - - - - - -
15/02/2020 18:50 15.7 58 - - - - 0.0 - - - - - -
15/02/2020 19:00 14.5 63 - - - - 0.0 - - - - - -
15/02/2020 19:10 15.1 60 - - - - 0.0 - - - - - -
15/02/2020 19:20 14.9 61 - - - - 0.0 - - - - - -
15/02/2020 19:30 14.4 62 - - - - 0.0 - - - - - -
15/02/2020 19:40 14.2 63 - - - - 0.0 - - - - - -
15/02/2020 19:50 15.6 55 - - - - 0.0 - - - - - -
15/02/2020 20:00 14.9 59 - - - - 0.0 - - - - - -
15/02/2020 20:10 14.2 62 - - - - 0.0 - - - - - -
15/02/2020 20:20 13.7 65 - - - - 0.0 - - - - - -
15/02/2020 20:30 12.7 69 - - - - 0.0 - - - - - -
15/02/2020 20:40 12.2 73 - - - - 0.0 - - - - - -
15/02/2020 20:50 12.7 69 - - - - 0.0 - - - - - -
15/02/2020 21:00 14.5 62 - - - - 0.0 - - - - - -
15/02/2020 21:10 14.3 63 - - - - 0.0 - - - - - -
15/02/2020 21:20 13.6 67 - - - - 0.0 - - - - - -
15/02/2020 21:30 12.5 72 - - - - 0.0 - - - - - -
15/02/2020 21:40 11.8 77 - - - - 0.0 - - - - - -
15/02/2020 21:50 11.6 78 - - - - 0.0 - - - - - -
15/02/2020 22:00 11.6 76 - - - - 0.0 - - - - - -
15/02/2020 22:10 15.0 58 - - - - 0.0 - - - - - -
15/02/2020 22:20 16.7 51 - - - - 0.0 - - - - - -
15/02/2020 22:30 16.2 53 - - - - 0.0 - - - - - -
15/02/2020 22:40 16.6 50 - - - - 0.0 - - - - - -
15/02/2020 22:50 17.0 48 - - - - 0.0 - - - - - -
15/02/2020 23:00 17.1 46 - - - - 0.0 - - - - - -
15/02/2020 23:10 17.2 45 - - - - 0.0 - - - - - -
15/02/2020 23:20 17.4 46 - - - - 0.0 - - - - - -
15/02/2020 23:30 16.9 49 - - - - 0.0 - - - - - -
15/02/2020 23:40 16.5 50 - - - - 0.0 - - - - - -
15/02/2020 23:50 17.3 45 - - - - 0.0 - - - - - -
Anterior Página 1 de 1 Siguiente

NOTA: Tipo de datos según el color:
   - Valores diarios o 10 minutos correctos
   - Valores diarios calculados a partir de un número de datos 10 minutos menor que 144 y mayor que 120, o de un número de datos semihorarios menor que 48 y mayor que 40 (caso de las estaciones de INTIA y del Ministerio)
   - Valores diez minutos estimados


Contacto        Enlaces        Aviso legal